Terminal Aerodrome Forecast
Issued by NWS

Home | Current Version | Previous Version | Text Only | Print | Product List | Glossary Off
Versions: 1 2 3 4 5 6 7 8 9 10 11 12 13 14 15 16 17 18 19 20 21 22 23

000
FTUS43 KTOP 251055 AAD
TAFMHK
TAF AMD
KMHK 251055Z 2511/2606 05003KT 6SM -RA VCTS SCT008 BKN015CB
      TEMPO 2511/2514 1SM TSRA BKN004CB
     FM251400 02004KT P6SM -SHRA VCTS BKN030CB
     FM251600 04005KT P6SM BKN060
     FM252300 06006KT P6SM VCTS BKN050CB=

USA.gov is the U.S. government's official web portal to all federal, state and local government web resources and services.